首页
METAR-TAF:

METAR-TAF

机场 :

金斯特里, 南卡罗来纳州, 美国

纬度: 33-43-02N, 经度: 079-51-25W, 海拔: 20米

当前天气观测

该预报发布于15分钟前的00:15 UTC
静风
温度 23°C
湿度 94%
气压 1018 hPa
能見度: 16.1公里
多云层高于8000英尺

METAR: KCKI 240015Z AUTO 00000KT 10SM BKN080 23/22 A3007 RMK AO2

时间: 20:30 (00:30 UTC)


TAF: 丢失

超过4000个机场的气象观测和天气预报(METAR&TAF报告)。

可查询的气象台以黄色和红色小点在地图上表示。

将鼠标移到小点上方,可查看气象台名称。

然后点击查看天气观测和预报。

如需切换地图:点击带黑十字的绿色按钮放大地图;点击带横线的绿色按钮缩小地图;或者点击绿色箭头查看邻近地区的地图。


METAR-TAF: